createdAt,value
2018-02-13T00:00:11.863Z,90.50
2018-02-13T00:02:40.071Z,90.50
2018-02-13T00:05:12.371Z,90.40
2018-02-13T00:07:39.817Z,90.50
2018-02-13T00:10:07.288Z,90.40
2018-02-13T00:12:34.754Z,90.40
2018-02-13T00:15:02.191Z,90.40
2018-02-13T00:17:29.733Z,90.40
2018-02-13T00:19:57.175Z,90.40
2018-02-13T00:22:24.640Z,90.40
2018-02-13T00:24:52.080Z,90.50
2018-02-13T00:27:20.311Z,90.50
2018-02-13T00:29:49.291Z,90.70
2018-02-13T00:32:20.650Z,90.50
2018-02-13T00:34:48.238Z,90.50
2018-02-13T00:37:16.452Z,90.80
2018-02-13T00:39:43.908Z,90.50
2018-02-13T00:42:11.350Z,90.50
2018-02-13T00:44:38.899Z,90.50
2018-02-13T00:47:22.076Z,90.50
2018-02-13T00:49:49.523Z,90.50
2018-02-13T00:52:16.970Z,90.40
2018-02-13T00:54:44.472Z,90.40
2018-02-13T00:57:11.933Z,90.40
2018-02-13T00:59:39.363Z,90.40
2018-02-13T01:02:15.948Z,90.40
2018-02-13T01:04:43.390Z,90.40
2018-02-13T01:07:10.902Z,90.40
2018-02-13T01:09:39.106Z,90.40
2018-02-13T01:12:06.655Z,90.40
2018-02-13T01:14:34.094Z,90.40
2018-02-13T01:17:02.292Z,90.40
2018-02-13T01:19:29.828Z,90.40
2018-02-13T01:21:58.032Z,90.30
2018-02-13T01:24:25.498Z,90.30
2018-02-13T01:26:52.962Z,90.40
2018-02-13T01:29:20.404Z,90.40
2018-02-13T01:31:47.999Z,90.40
2018-02-13T01:34:15.434Z,90.40
2018-02-13T01:36:42.898Z,90.40
2018-02-13T01:39:10.339Z,90.40
2018-02-13T01:41:39.967Z,90.50
2018-02-13T01:44:07.412Z,90.50
2018-02-13T01:46:34.999Z,90.50
2018-02-13T01:49:02.432Z,90.40
2018-02-13T01:51:32.460Z,90.50
2018-02-13T01:53:59.905Z,90.50
2018-02-13T01:56:27.337Z,90.40
2018-02-13T01:58:58.759Z,90.40
2018-02-13T02:01:26.198Z,90.40
2018-02-13T02:03:53.663Z,90.40
2018-02-13T02:06:21.107Z,90.40
2018-02-13T02:08:48.659Z,90.40
2018-02-13T02:11:16.156Z,90.40
2018-02-13T02:13:44.357Z,90.40
2018-02-13T02:16:11.825Z,90.40
2018-02-13T02:18:39.263Z,90.40
2018-02-13T02:21:06.764Z,90.40
2018-02-13T02:23:34.204Z,90.40
2018-02-13T02:26:01.651Z,90.40
2018-02-13T02:28:40.152Z,90.40
2018-02-13T02:31:07.607Z,90.40
2018-02-13T02:33:35.071Z,90.40
2018-02-13T02:36:02.512Z,90.40
2018-02-13T02:38:30.739Z,90.40
2018-02-13T02:40:58.178Z,90.40
2018-02-13T02:43:29.655Z,90.30
2018-02-13T02:45:57.315Z,90.30
2018-02-13T02:48:24.805Z,90.30
2018-02-13T02:50:53.041Z,90.40
2018-02-13T02:53:20.491Z,90.30
2018-02-13T02:55:47.967Z,90.30
2018-02-13T02:58:15.415Z,90.30
2018-02-13T03:00:42.860Z,90.30
2018-02-13T03:03:10.420Z,90.40
2018-02-13T03:05:37.873Z,90.40
2018-02-13T03:08:05.312Z,90.40
2018-02-13T03:10:32.914Z,90.50
2018-02-13T03:13:01.125Z,90.50
2018-02-13T03:15:46.236Z,90.50
2018-02-13T03:18:13.688Z,90.50
2018-02-13T03:20:41.284Z,90.50
2018-02-13T03:23:08.724Z,90.50
2018-02-13T03:25:36.197Z,90.40
2018-02-13T03:28:03.643Z,90.40
2018-02-13T03:30:31.109Z,90.40
2018-02-13T03:32:58.552Z,90.40
2018-02-13T03:35:26.144Z,90.40
2018-02-13T03:37:53.590Z,90.40
2018-02-13T03:40:21.030Z,90.40
2018-02-13T03:42:48.495Z,90.40
2018-02-13T03:45:17.201Z,90.70
2018-02-13T03:47:44.642Z,90.40
2018-02-13T03:50:13.036Z,90.40
2018-02-13T03:52:40.983Z,90.30
2018-02-13T03:55:08.420Z,90.30
2018-02-13T03:57:35.868Z,90.30
2018-02-13T04:00:03.319Z,90.40
2018-02-13T04:02:30.789Z,90.40
2018-02-13T04:04:58.219Z,90.40
2018-02-13T04:07:26.443Z,90.30
2018-02-13T04:09:54.149Z,90.30
2018-02-13T04:12:22.567Z,90.30
2018-02-13T04:14:50.017Z,90.20
2018-02-13T04:17:17.451Z,90.30
2018-02-13T04:19:45.685Z,90.40
2018-02-13T04:22:13.140Z,90.40
2018-02-13T04:24:40.633Z,90.40
2018-02-13T04:27:08.041Z,90.40
2018-02-13T04:29:35.472Z,90.40
2018-02-13T04:32:03.080Z,90.40
2018-02-13T04:34:30.520Z,90.40
2018-02-13T04:36:57.984Z,90.40
2018-02-13T04:39:25.428Z,90.40
2018-02-13T04:41:52.887Z,90.40
2018-02-13T04:44:20.332Z,90.40
2018-02-13T04:46:47.913Z,90.30
2018-02-13T04:49:21.236Z,90.40
2018-02-13T04:51:48.731Z,90.40
2018-02-13T04:54:16.168Z,90.40
2018-02-13T04:56:44.426Z,90.30
2018-02-13T04:59:11.855Z,90.30
2018-02-13T05:01:39.376Z,90.40
2018-02-13T05:04:06.811Z,90.40
2018-02-13T05:06:35.247Z,90.40
2018-02-13T05:09:03.486Z,90.50
2018-02-13T05:11:31.704Z,90.60
2018-02-13T05:13:59.160Z,90.60
2018-02-13T05:16:26.602Z,90.60
2018-02-13T05:18:56.633Z,90.60
2018-02-13T05:21:24.076Z,90.60
2018-02-13T05:23:51.511Z,90.50
2018-02-13T05:26:19.008Z,90.50
2018-02-13T05:28:46.463Z,90.50
2018-02-13T05:31:13.912Z,90.40
2018-02-13T05:33:41.390Z,90.50
2018-02-13T05:36:11.747Z,90.60
2018-02-13T05:38:39.957Z,90.50
2018-02-13T05:41:07.744Z,90.50
2018-02-13T05:43:35.209Z,90.50
2018-02-13T05:46:02.661Z,90.50
2018-02-13T05:48:30.178Z,90.40
2018-02-13T05:50:57.646Z,90.50
2018-02-13T05:53:25.118Z,90.50
2018-02-13T05:55:52.551Z,90.50
2018-02-13T05:58:20.361Z,90.40
2018-02-13T06:00:47.807Z,90.50
2018-02-13T06:03:15.263Z,90.50
2018-02-13T06:05:42.709Z,90.50
2018-02-13T06:08:10.371Z,90.50
2018-02-13T06:10:37.817Z,90.50
2018-02-13T06:13:05.248Z,90.50
2018-02-13T06:15:33.647Z,90.60
2018-02-13T06:18:01.079Z,90.60
2018-02-13T06:20:29.307Z,90.60
2018-02-13T06:22:56.800Z,90.60
2018-02-13T06:25:24.217Z,90.60
2018-02-13T06:27:52.008Z,90.60
2018-02-13T06:30:19.452Z,90.60
2018-02-13T06:32:47.668Z,90.60
2018-02-13T06:35:16.083Z,90.60
2018-02-13T06:37:43.539Z,90.60
2018-02-13T06:40:10.977Z,90.70
2018-02-13T06:42:39.223Z,90.70
2018-02-13T06:45:06.656Z,90.70
2018-02-13T06:47:34.104Z,90.70
2018-02-13T06:50:01.608Z,90.70
2018-02-13T06:52:30.132Z,91.00
2018-02-13T06:54:57.563Z,90.70
2018-02-13T06:57:25.764Z,90.70
2018-02-13T06:59:53.223Z,90.70
2018-02-13T07:02:20.693Z,90.70
2018-02-13T07:04:48.187Z,90.70
2018-02-13T07:07:15.635Z,90.70
2018-02-13T07:09:52.089Z,90.70
2018-02-13T07:12:19.519Z,90.70
2018-02-13T07:14:46.965Z,90.70
2018-02-13T07:17:14.411Z,90.70
2018-02-13T07:19:41.909Z,90.70
2018-02-13T07:22:09.385Z,90.70
2018-02-13T07:24:36.823Z,90.70
2018-02-13T07:27:04.409Z,90.80
2018-02-13T07:29:31.916Z,90.80
2018-02-13T07:31:59.352Z,90.90
2018-02-13T07:34:27.584Z,90.80
2018-02-13T07:36:55.027Z,90.80
2018-02-13T07:39:22.486Z,90.80
2018-02-13T07:41:49.971Z,90.70
2018-02-13T07:44:17.432Z,90.70
2018-02-13T07:46:44.876Z,90.70
2018-02-13T07:49:12.343Z,90.70
2018-02-13T07:51:39.788Z,90.70
2018-02-13T07:54:07.298Z,90.60
2018-02-13T07:56:34.751Z,90.50
2018-02-13T07:59:02.328Z,90.40
2018-02-13T08:01:29.796Z,90.40
2018-02-13T08:03:57.246Z,90.50
2018-02-13T08:06:24.732Z,90.50
2018-02-13T08:08:52.342Z,90.50
2018-02-13T08:11:20.585Z,90.40
2018-02-13T08:13:48.152Z,90.40
2018-02-13T08:16:17.556Z,90.40
2018-02-13T08:18:45.017Z,90.40
2018-02-13T08:21:12.456Z,90.40
2018-02-13T08:23:39.942Z,90.30
2018-02-13T08:26:08.192Z,90.30
2018-02-13T08:28:35.637Z,90.30
2018-02-13T08:31:03.292Z,90.20
2018-02-13T08:33:30.740Z,90.20
2018-02-13T08:35:58.233Z,90.20
2018-02-13T08:38:25.685Z,90.10
2018-02-13T08:40:53.120Z,90.10
2018-02-13T08:43:20.676Z,90.10
2018-02-13T08:45:48.134Z,90.00
2018-02-13T08:48:16.353Z,90.00
2018-02-13T08:50:46.804Z,89.90
2018-02-13T08:53:15.031Z,89.80
2018-02-13T08:55:42.480Z,89.70
2018-02-13T08:58:09.995Z,89.70
2018-02-13T09:00:37.438Z,89.50
2018-02-13T09:03:05.659Z,89.40
2018-02-13T09:05:33.094Z,89.30
2018-02-13T09:08:01.666Z,89.30
2018-02-13T09:10:29.872Z,89.10
2018-02-13T09:12:57.456Z,89.10
2018-02-13T09:15:24.891Z,89.10
2018-02-13T09:17:52.351Z,88.90
2018-02-13T09:20:19.843Z,88.90
2018-02-13T09:22:47.237Z,88.80
2018-02-13T09:25:14.672Z,88.70
2018-02-13T09:27:43.021Z,88.70
2018-02-13T09:30:10.452Z,88.50
2018-02-13T09:32:38.113Z,88.50
2018-02-13T09:35:05.553Z,88.40
2018-02-13T09:37:32.991Z,88.30
2018-02-13T09:40:01.204Z,88.20
2018-02-13T09:42:29.816Z,88.10
2018-02-13T09:44:57.243Z,88.10
2018-02-13T09:47:24.703Z,88.10
2018-02-13T09:49:52.167Z,88.00
2018-02-13T09:52:19.596Z,87.90
2018-02-13T09:54:47.069Z,87.90
2018-02-13T09:57:14.528Z,87.80
2018-02-13T09:59:41.963Z,87.70
2018-02-13T10:02:09.480Z,87.60
2018-02-13T10:04:36.909Z,87.50
2018-02-13T10:07:05.152Z,87.20
2018-02-13T10:09:33.383Z,86.90
2018-02-13T10:12:00.820Z,87.00
2018-02-13T10:14:28.284Z,86.80
2018-02-13T10:16:55.725Z,86.70
2018-02-13T10:19:23.164Z,86.60
2018-02-13T10:21:50.713Z,86.40
2018-02-13T10:24:18.918Z,86.30
2018-02-13T10:26:46.514Z,86.30
2018-02-13T10:29:13.940Z,86.20
2018-02-13T10:31:41.395Z,86.20
2018-02-13T10:34:08.836Z,85.70
2018-02-13T10:36:36.378Z,85.70
2018-02-13T10:39:04.587Z,85.30
2018-02-13T10:41:32.048Z,85.20
2018-02-13T10:44:04.354Z,85.00
2018-02-13T10:46:31.880Z,84.80
2018-02-13T10:48:59.693Z,84.40
2018-02-13T10:51:27.121Z,84.40
2018-02-13T10:53:54.592Z,84.50
2018-02-13T10:56:22.106Z,84.70
2018-02-13T10:58:49.537Z,83.60
2018-02-13T11:01:23.387Z,83.70
2018-02-13T11:03:50.834Z,82.90
2018-02-13T11:06:18.292Z,82.80
2018-02-13T11:08:45.728Z,82.60
2018-02-13T11:11:13.301Z,82.30
2018-02-13T11:13:40.729Z,82.10
2018-02-13T11:16:09.079Z,81.60
2018-02-13T11:18:36.507Z,81.60
2018-02-13T11:21:03.994Z,81.20
2018-02-13T11:23:31.424Z,81.10
2018-02-13T11:25:58.860Z,80.80
2018-02-13T11:28:26.432Z,80.50
2018-02-13T11:30:53.851Z,80.10
2018-02-13T11:33:22.064Z,79.50
2018-02-13T11:35:49.652Z,79.40
2018-02-13T11:38:17.092Z,79.20
2018-02-13T11:40:44.752Z,79.30
2018-02-13T11:43:12.182Z,79.00
2018-02-13T11:45:39.610Z,78.70
2018-02-13T11:48:07.080Z,78.60
2018-02-13T11:50:35.277Z,77.60
2018-02-13T11:53:02.709Z,77.60
2018-02-13T11:55:31.012Z,77.20
2018-02-13T11:57:58.520Z,77.10
2018-02-13T12:00:25.977Z,77.00
2018-02-13T12:02:53.408Z,76.80
2018-02-13T12:05:21.088Z,76.60
2018-02-13T12:07:48.520Z,76.10
2018-02-13T12:10:15.948Z,76.20
2018-02-13T12:12:43.685Z,75.90
2018-02-13T12:15:11.139Z,75.60
2018-02-13T12:17:38.571Z,75.20
2018-02-13T12:20:06.051Z,75.00
2018-02-13T12:22:33.488Z,74.50
2018-02-13T12:25:00.978Z,74.30
2018-02-13T12:27:28.418Z,73.50
2018-02-13T12:29:55.841Z,73.40
2018-02-13T12:32:23.300Z,73.30
2018-02-13T12:34:51.510Z,72.20
2018-02-13T12:37:21.174Z,72.10
2018-02-13T12:39:48.620Z,71.90
2018-02-13T12:42:16.335Z,72.10
2018-02-13T12:44:43.761Z,72.40
2018-02-13T12:47:11.964Z,71.20
2018-02-13T12:49:39.424Z,71.20
2018-02-13T12:52:06.845Z,70.80
2018-02-13T12:54:34.365Z,70.20
2018-02-13T12:57:02.564Z,70.40
2018-02-13T12:59:30.024Z,70.40
2018-02-13T13:01:57.461Z,70.30
2018-02-13T13:04:25.684Z,70.10
2018-02-13T13:06:53.129Z,70.00
2018-02-13T13:09:20.729Z,69.40
2018-02-13T13:11:48.169Z,69.20
2018-02-13T13:14:16.998Z,69.10
2018-02-13T13:16:45.216Z,68.00
2018-02-13T13:19:12.959Z,68.00
2018-02-13T13:21:40.417Z,68.20
2018-02-13T13:24:07.867Z,68.10
2018-02-13T13:26:35.528Z,68.30
2018-02-13T13:29:03.740Z,68.30
2018-02-13T13:31:31.193Z,68.30
2018-02-13T13:33:58.629Z,68.30
2018-02-13T13:36:26.056Z,68.30
2018-02-13T13:38:53.516Z,68.00
2018-02-13T13:41:21.801Z,67.40
2018-02-13T13:43:56.002Z,66.80
2018-02-13T13:46:23.448Z,66.70
2018-02-13T13:48:52.520Z,66.60
2018-02-13T13:51:19.961Z,66.60
2018-02-13T13:53:47.424Z,66.90
2018-02-13T13:56:14.860Z,66.80
2018-02-13T13:58:42.389Z,66.30
2018-02-13T14:01:09.854Z,66.10
2018-02-13T14:03:39.020Z,65.50
2018-02-13T14:06:06.463Z,65.60
2018-02-13T14:08:33.952Z,65.30
2018-02-13T14:11:01.411Z,65.70
2018-02-13T14:13:28.853Z,65.20
2018-02-13T14:15:56.703Z,65.00
2018-02-13T14:18:24.127Z,64.70
2018-02-13T14:20:51.566Z,64.50
2018-02-13T14:23:19.792Z,65.10
2018-02-13T14:25:47.258Z,65.00
2018-02-13T14:28:14.664Z,64.50
2018-02-13T14:30:42.116Z,64.00
2018-02-13T14:33:10.322Z,64.30
2018-02-13T14:35:37.814Z,64.30
2018-02-13T14:38:05.271Z,63.50
2018-02-13T14:40:32.700Z,63.40
2018-02-13T14:43:00.123Z,63.40
2018-02-13T14:45:29.775Z,62.80
2018-02-13T14:47:57.214Z,62.70
2018-02-13T14:50:24.884Z,62.50
2018-02-13T14:52:52.329Z,62.40
2018-02-13T14:55:19.780Z,62.10
2018-02-13T14:57:47.217Z,62.10
2018-02-13T15:00:15.444Z,61.80
2018-02-13T15:02:42.905Z,61.90
2018-02-13T15:05:10.345Z,61.90
2018-02-13T15:07:37.928Z,62.00
2018-02-13T15:10:05.360Z,62.00
2018-02-13T15:12:34.061Z,61.70
2018-02-13T15:15:02.465Z,62.00
2018-02-13T15:17:34.392Z,62.20
2018-02-13T15:20:01.817Z,62.10
2018-02-13T15:22:30.095Z,62.40
2018-02-13T15:24:58.285Z,62.50
2018-02-13T15:27:25.756Z,62.50
2018-02-13T15:29:53.184Z,62.60
2018-02-13T15:32:20.616Z,62.50
2018-02-13T15:34:49.784Z,62.50
2018-02-13T15:37:17.218Z,62.40
2018-02-13T15:39:45.631Z,62.40
2018-02-13T15:42:13.103Z,62.20
2018-02-13T15:44:40.945Z,63.20
2018-02-13T15:47:11.253Z,62.30
2018-02-13T15:49:38.681Z,62.40
2018-02-13T15:52:06.908Z,62.50
2018-02-13T15:54:34.336Z,62.50
2018-02-13T15:57:01.920Z,62.70
2018-02-13T15:59:30.313Z,62.90
2018-02-13T16:01:57.808Z,62.90
2018-02-13T16:04:26.016Z,63.20
2018-02-13T16:06:53.445Z,63.10
2018-02-13T16:09:25.519Z,63.30
2018-02-13T16:11:53.462Z,63.30
2018-02-13T16:14:21.780Z,63.60
2018-02-13T16:16:51.722Z,63.60
2018-02-13T16:19:19.149Z,63.60
2018-02-13T16:21:46.717Z,64.00
2018-02-13T16:24:14.208Z,63.90
2018-02-13T16:26:48.608Z,64.10
2018-02-13T16:29:16.823Z,64.00
2018-02-13T16:31:45.278Z,64.00
2018-02-13T16:34:12.805Z,63.90
2018-02-13T16:36:40.283Z,63.90
2018-02-13T16:39:08.688Z,64.00
2018-02-13T16:41:36.488Z,64.10
2018-02-13T16:44:04.688Z,64.20
2018-02-13T16:46:32.125Z,64.20
2018-02-13T16:49:07.386Z,64.20
2018-02-13T16:51:35.576Z,64.50
2018-02-13T16:54:03.003Z,64.40
2018-02-13T16:56:30.459Z,64.40
2018-02-13T16:58:59.829Z,64.50
2018-02-13T17:01:27.309Z,64.70
2018-02-13T17:03:55.568Z,64.70
2018-02-13T17:06:24.740Z,65.00
2018-02-13T17:08:52.325Z,65.70
2018-02-13T17:11:20.555Z,65.00
2018-02-13T17:13:48.009Z,65.00
2018-02-13T17:16:15.495Z,65.10
2018-02-13T17:18:42.952Z,65.20
2018-02-13T17:21:10.400Z,65.80
2018-02-13T17:23:37.826Z,65.20
2018-02-13T17:26:15.408Z,65.20
2018-02-13T17:28:43.600Z,65.40
2018-02-13T17:31:11.283Z,65.40
2018-02-13T17:33:38.717Z,65.50
2018-02-13T17:36:06.170Z,65.60
2018-02-13T17:38:33.656Z,65.60
2018-02-13T17:41:01.303Z,65.80
2018-02-13T17:43:28.804Z,65.90
2018-02-13T17:45:56.537Z,65.90
2018-02-13T17:48:27.684Z,66.40
2018-02-13T17:50:59.065Z,66.10
2018-02-13T17:53:26.538Z,66.10
2018-02-13T17:55:53.957Z,66.20
2018-02-13T17:58:21.439Z,66.20
2018-02-13T18:00:48.872Z,66.20
2018-02-13T18:03:16.889Z,66.30
2018-02-13T18:05:45.180Z,66.50
2018-02-13T18:08:14.912Z,66.40
2018-02-13T18:10:42.389Z,66.50
2018-02-13T18:13:09.828Z,66.70
2018-02-13T18:15:37.265Z,66.80
2018-02-13T18:18:06.692Z,66.90
2018-02-13T18:20:34.130Z,67.30
2018-02-13T18:23:01.608Z,66.80
2018-02-13T18:25:29.041Z,66.90
2018-02-13T18:27:56.507Z,67.00
2018-02-13T18:30:23.945Z,67.00
2018-02-13T18:32:51.386Z,67.10
2018-02-13T18:35:20.225Z,67.30
2018-02-13T18:37:49.349Z,67.40
2018-02-13T18:40:16.775Z,67.40
2018-02-13T18:42:44.291Z,67.40
2018-02-13T18:45:12.567Z,67.50
2018-02-13T18:47:39.973Z,67.50
2018-02-13T18:50:07.413Z,67.50
2018-02-13T18:55:09.096Z,67.60
2018-02-13T18:57:36.512Z,67.60
2018-02-13T19:00:04.731Z,67.80
2018-02-13T19:02:32.191Z,67.70
2018-02-13T19:04:59.625Z,67.80
2018-02-13T19:07:27.213Z,67.90
2018-02-13T19:09:54.661Z,67.90
2018-02-13T19:12:22.108Z,67.90
2018-02-13T19:14:49.564Z,67.90
2018-02-13T19:17:17.020Z,68.10
2018-02-13T19:19:44.452Z,68.20
2018-02-13T19:22:12.736Z,68.20
2018-02-13T19:24:40.294Z,68.20
2018-02-13T19:27:07.728Z,68.20
2018-02-13T19:29:35.147Z,68.30
2018-02-13T19:32:02.759Z,68.40
2018-02-13T19:34:30.964Z,68.40
2018-02-13T19:36:58.389Z,68.40
2018-02-13T19:39:26.914Z,68.50
2018-02-13T19:41:54.347Z,68.50
2018-02-13T19:44:21.772Z,68.60
2018-02-13T19:46:49.239Z,68.60
2018-02-13T19:49:17.441Z,68.80
2018-02-13T19:51:45.073Z,68.80
2018-02-13T19:54:13.276Z,68.90
2018-02-13T19:56:40.712Z,68.90
2018-02-13T19:59:09.905Z,69.00
2018-02-13T20:01:38.148Z,69.00
2018-02-13T20:04:05.597Z,68.90
2018-02-13T20:06:33.033Z,69.10
2018-02-13T20:09:00.589Z,69.00
2018-02-13T20:11:28.758Z,69.00
2018-02-13T20:13:56.228Z,68.90
2018-02-13T20:16:23.660Z,68.90
2018-02-13T20:18:51.167Z,69.00
2018-02-13T20:21:18.643Z,69.00
2018-02-13T20:23:46.073Z,69.10
2018-02-13T20:26:13.532Z,69.00
2018-02-13T20:28:40.964Z,69.10
2018-02-13T20:31:08.421Z,69.20
2018-02-13T20:33:35.848Z,69.20
2018-02-13T20:36:04.157Z,69.40
2018-02-13T20:38:42.496Z,69.30
2018-02-13T20:41:11.397Z,69.20
2018-02-13T20:43:38.856Z,69.30
2018-02-13T20:46:06.288Z,69.30
2018-02-13T20:48:33.752Z,69.30
2018-02-13T20:51:01.197Z,69.40
2018-02-13T20:53:29.700Z,69.50
2018-02-13T20:55:57.139Z,69.50
2018-02-13T20:58:24.600Z,69.50
2018-02-13T21:00:52.047Z,69.50
2018-02-13T21:03:19.538Z,69.40
2018-02-13T21:05:46.965Z,69.50
2018-02-13T21:08:14.407Z,69.40
2018-02-13T21:10:41.902Z,69.50
2018-02-13T21:13:09.335Z,69.50
2018-02-13T21:15:36.803Z,69.50
2018-02-13T21:18:05.025Z,69.50
2018-02-13T21:20:32.456Z,69.40
2018-02-13T21:22:59.940Z,69.50
2018-02-13T21:25:28.153Z,69.50
2018-02-13T21:27:55.593Z,69.40
2018-02-13T21:30:28.311Z,69.40
2018-02-13T21:32:55.775Z,69.40
2018-02-13T21:35:23.209Z,69.40
2018-02-13T21:37:50.669Z,69.40
2018-02-13T21:40:18.105Z,69.50
2018-02-13T21:42:45.671Z,69.50
2018-02-13T21:45:13.100Z,69.30
2018-02-13T21:47:41.332Z,69.50
2018-02-13T21:50:26.772Z,69.50
2018-02-13T21:52:55.022Z,69.50
2018-02-13T21:55:34.528Z,69.50
2018-02-13T21:58:02.151Z,69.50
2018-02-13T22:00:30.349Z,69.40
2018-02-13T22:02:57.782Z,69.40
2018-02-13T22:05:26.045Z,69.60
2018-02-13T22:07:59.123Z,69.80
2018-02-13T22:10:30.007Z,69.60
2018-02-13T22:12:58.209Z,69.00
2018-02-13T22:15:37.722Z,69.60
2018-02-13T22:18:05.161Z,69.80
2018-02-13T22:20:32.675Z,69.60
2018-02-13T22:23:00.096Z,69.60
2018-02-13T22:25:27.540Z,69.60
2018-02-13T22:27:54.997Z,69.60
2018-02-13T22:30:28.561Z,69.60
2018-02-13T22:32:56.136Z,69.60
2018-02-13T22:35:24.341Z,69.60
2018-02-13T22:37:51.805Z,69.50
2018-02-13T22:40:19.261Z,69.60
2018-02-13T22:42:46.792Z,69.70
2018-02-13T22:45:14.995Z,69.50
2018-02-13T22:47:42.436Z,69.50
2018-02-13T22:50:10.021Z,69.60
2018-02-13T22:52:37.477Z,69.50
2018-02-13T22:55:04.922Z,69.60
2018-02-13T22:57:32.390Z,69.60
2018-02-13T23:02:52.452Z,69.70
2018-02-13T23:05:20.819Z,69.60
2018-02-13T23:07:48.261Z,69.60
2018-02-13T23:10:15.783Z,70.30
2018-02-13T23:12:44.013Z,69.90
2018-02-13T23:15:11.440Z,69.50
2018-02-13T23:17:38.887Z,69.50
2018-02-13T23:20:06.320Z,69.50
2018-02-13T23:22:33.900Z,69.50
2018-02-13T23:25:01.332Z,69.60
2018-02-13T23:27:28.765Z,69.50
2018-02-13T23:29:56.988Z,70.20
2018-02-13T23:32:24.452Z,69.60
2018-02-13T23:34:51.952Z,69.70
2018-02-13T23:37:19.381Z,69.60
2018-02-13T23:39:46.893Z,69.60
2018-02-13T23:42:14.329Z,69.60
2018-02-13T23:44:42.683Z,70.30
2018-02-13T23:47:10.135Z,69.60
2018-02-13T23:49:37.584Z,69.50
2018-02-13T23:52:05.025Z,69.60
2018-02-13T23:54:32.453Z,69.70
2018-02-13T23:57:00.696Z,69.70
2018-02-13T23:59:29.068Z,69.70
